Time;durP1;ratioP1;P1;durP2;ratioP2;P2;SDS_P1;SDS_P2;PMS_P1;PMS_P2;Temp;Humidity;BMP_temperature;BMP_pressure;BME280_temperature;BME280_humidity;BME280_pressure;Samples;Min_cycle;Max_cycle;Signal;HPM_P1;HPM_P2
2022/01/29 00:01:14;;;;;;;23.13;6.53;;;8.30;99.90;;;;;;5087202;28;20228;-81
2022/01/29 00:03:42;;;;;;;25.80;6.40;;;8.30;99.90;;;;;;5086680;28;20215;-81
2022/01/29 00:06:09;;;;;;;24.60;6.43;;;8.30;99.90;;;;;;5086427;28;20654;-80
2022/01/29 00:08:36;;;;;;;22.13;6.73;;;8.30;99.90;;;;;;5086146;28;20200;-81
2022/01/29 00:11:09;;;;;;;21.40;6.27;;;8.30;99.90;;;;;;5086387;28;20211;-80
2022/01/29 00:13:37;;;;;;;28.20;7.40;;;8.30;99.90;;;;;;5086425;28;20531;-80
2022/01/29 00:16:04;;;;;;;31.83;7.63;;;8.30;99.90;;;;;;5086281;28;20256;-80
2022/01/29 00:18:32;;;;;;;29.40;8.00;;;8.30;99.90;;;;;;5086019;28;20936;-80
2022/01/29 00:20:59;;;;;;;32.27;8.60;;;8.30;99.90;;;;;;5102926;28;20579;-80
2022/01/29 00:23:26;;;;;;;25.23;7.77;;;8.30;99.90;;;;;;5106876;28;20686;-80
2022/01/29 00:25:52;;;;;;;31.23;8.83;;;8.30;99.90;;;;;;5104618;28;20495;-78
2022/01/29 00:28:19;;;;;;;35.60;11.40;;;8.40;99.90;;;;;;5103298;28;20209;-80
2022/01/29 00:30:46;;;;;;;28.37;9.67;;;8.40;99.90;;;;;;5086295;28;20546;-79
2022/01/29 00:33:14;;;;;;;37.17;9.70;;;8.40;99.90;;;;;;5089618;28;20208;-80
2022/01/29 00:35:42;;;;;;;28.40;8.47;;;8.40;99.90;;;;;;5106558;28;20238;-80
2022/01/29 00:38:09;;;;;;;33.37;9.70;;;8.40;99.90;;;;;;5106487;28;20219;-79
2022/01/29 00:40:37;;;;;;;30.23;10.40;;;8.40;99.90;;;;;;5107387;28;20223;-81
2022/01/29 00:43:04;;;;;;;37.27;10.70;;;8.40;99.90;;;;;;5088606;28;20212;-80
2022/01/29 00:45:32;;;;;;;29.90;11.73;;;8.40;99.90;;;;;;5089871;28;20223;-80
2022/01/29 00:47:59;;;;;;;44.33;13.00;;;8.50;99.90;;;;;;5094293;27;20505;-81
2022/01/29 00:50:26;;;;;;;45.70;13.33;;;8.50;99.90;;;;;;5089783;28;20207;-80
2022/01/29 00:52:54;;;;;;;38.77;14.17;;;8.50;99.90;;;;;;5107092;28;20210;-80
2022/01/29 00:55:21;;;;;;;40.13;15.17;;;8.50;99.90;;;;;;5102342;27;20209;-82
2022/01/29 00:57:48;;;;;;;48.73;18.43;;;8.60;99.90;;;;;;5086634;28;20231;-82
2022/01/29 01:00:15;;;;;;;41.23;16.93;;;8.60;99.90;;;;;;5086581;28;20209;-78
2022/01/29 01:02:43;;;;;;;38.67;15.57;;;8.60;99.90;;;;;;5085594;28;20954;-80
2022/01/29 01:05:11;;;;;;;41.27;14.30;;;8.60;99.90;;;;;;5086256;28;20200;-80
2022/01/29 01:07:38;;;;;;;32.70;13.90;;;8.50;99.90;;;;;;5086328;28;20192;-82
2022/01/29 01:10:09;;;;;;;32.20;13.50;;;8.60;99.90;;;;;;5086994;28;20497;-83
2022/01/29 01:12:36;;;;;;;39.87;14.47;;;8.60;99.90;;;;;;5085718;28;20596;-82
2022/01/29 01:15:08;;;;;;;36.13;13.77;;;8.50;99.90;;;;;;5091988;28;20594;-80
2022/01/29 01:17:35;;;;;;;36.03;11.80;;;8.50;99.90;;;;;;5107203;28;20215;-81
2022/01/29 01:20:01;;;;;;;39.73;13.60;;;8.50;99.90;;;;;;5091602;28;20887;-81
2022/01/29 01:22:28;;;;;;;34.60;12.90;;;8.50;99.90;;;;;;5088468;28;20196;-80
2022/01/29 01:24:55;;;;;;;33.40;12.90;;;8.50;99.90;;;;;;5090437;28;20216;-80
2022/01/29 01:27:23;;;;;;;41.67;13.77;;;8.50;99.90;;;;;;5090265;28;20343;-80
2022/01/29 01:29:50;;;;;;;40.03;15.00;;;8.50;99.90;;;;;;5088981;28;20213;-80
2022/01/29 01:32:17;;;;;;;37.50;13.63;;;8.50;99.90;;;;;;5090091;28;20200;-79
2022/01/29 01:34:48;;;;;;;38.73;14.97;;;8.50;99.90;;;;;;5090019;28;20211;-81
2022/01/29 01:37:23;;;;;;;42.97;13.97;;;8.60;99.90;;;;;;5089782;28;20232;-81
2022/01/29 01:39:50;;;;;;;45.97;15.50;;;8.60;99.90;;;;;;5090177;28;20247;-81
2022/01/29 01:42:17;;;;;;;38.77;15.00;;;8.70;99.90;;;;;;5090238;28;20204;-80
2022/01/29 01:44:48;;;;;;;30.97;13.83;;;8.70;99.90;;;;;;5089224;28;20209;-79
2022/01/29 01:47:16;;;;;;;31.27;13.17;;;8.70;99.90;;;;;;5107522;28;20883;-81
2022/01/29 01:49:43;;;;;;;30.83;14.63;;;8.70;99.90;;;;;;5095590;28;20207;-81
2022/01/29 01:52:11;;;;;;;36.40;14.90;;;8.70;99.90;;;;;;5089194;28;20258;-79
2022/01/29 01:54:39;;;;;;;39.80;15.87;;;8.70;99.90;;;;;;5089911;28;20204;-81
2022/01/29 01:57:06;;;;;;;39.07;15.73;;;8.80;99.90;;;;;;5089328;28;20220;-80
2022/01/29 01:59:34;;;;;;;42.47;16.13;;;8.80;99.90;;;;;;5089496;28;20541;-81
2022/01/29 02:02:03;;;;;;;32.63;15.33;;;8.80;99.90;;;;;;5089616;28;20205;-80
2022/01/29 02:04:29;;;;;;;39.87;15.53;;;8.80;99.90;;;;;;5089800;28;20197;-81
2022/01/29 02:06:58;;;;;;;35.33;14.67;;;8.80;99.90;;;;;;5089876;28;20558;-81
2022/01/29 02:09:25;;;;;;;40.93;17.17;;;8.80;99.90;;;;;;5089624;28;20204;-83
2022/01/29 02:11:54;;;;;;;34.07;16.13;;;8.80;99.90;;;;;;5089063;28;20204;-81
2022/01/29 02:14:24;;;;;;;36.50;15.83;;;8.90;99.90;;;;;;5089532;28;20197;-81
2022/01/29 02:16:51;;;;;;;39.40;17.10;;;8.90;99.90;;;;;;5089493;28;20250;-81
2022/01/29 02:19:19;;;;;;;36.13;17.23;;;8.90;99.90;;;;;;5102154;28;20211;-82
2022/01/29 02:21:48;;;;;;;37.90;15.47;;;8.90;99.90;;;;;;5109794;28;20211;-81
2022/01/29 02:24:14;;;;;;;33.60;15.10;;;8.90;99.90;;;;;;5092332;28;20215;-83
2022/01/29 02:26:41;;;;;;;38.17;16.03;;;8.90;99.90;;;;;;5089302;28;20213;-80
2022/01/29 02:29:08;;;;;;;42.27;15.60;;;8.90;99.90;;;;;;5090879;28;20197;-80
2022/01/29 02:31:35;;;;;;;33.73;14.73;;;8.90;99.90;;;;;;5090157;28;20209;-80
2022/01/29 02:34:03;;;;;;;40.70;15.60;;;8.90;99.90;;;;;;5089480;28;20200;-81
2022/01/29 02:36:30;;;;;;;44.50;15.47;;;8.90;99.90;;;;;;5089143;28;20243;-81
2022/01/29 02:39:00;;;;;;;48.87;16.07;;;8.90;99.90;;;;;;5089141;28;20282;-79
2022/01/29 02:41:28;;;;;;;32.67;14.87;;;8.90;99.90;;;;;;5088025;28;20267;-83
2022/01/29 02:44:00;;;;;;;37.67;13.77;;;8.90;99.90;;;;;;5087386;28;20626;-81
2022/01/29 02:46:40;;;;;;;34.83;15.23;;;8.90;99.90;;;;;;5087432;28;20221;-81
2022/01/29 02:49:07;;;;;;;46.20;15.60;;;8.90;99.90;;;;;;5088349;28;20508;-80
2022/01/29 02:51:34;;;;;;;46.53;16.97;;;8.90;99.90;;;;;;5088956;28;20207;-82
2022/01/29 02:54:02;;;;;;;35.03;14.20;;;8.90;99.90;;;;;;5087335;28;20205;-81
2022/01/29 02:56:29;;;;;;;33.80;13.97;;;8.90;99.90;;;;;;5088159;28;20224;-81
2022/01/29 02:58:55;;;;;;;33.17;14.57;;;8.90;99.90;;;;;;5088373;28;20306;-80
2022/01/29 03:01:22;;;;;;;37.67;13.60;;;8.90;99.90;;;;;;5104422;28;20204;-79
2022/01/29 03:03:49;;;;;;;38.00;14.23;;;8.80;99.90;;;;;;5108325;28;20834;-82
2022/01/29 03:06:15;;;;;;;29.90;14.83;;;8.80;99.90;;;;;;5100565;28;20215;-84
2022/01/29 03:08:42;;;;;;;26.70;12.90;;;8.90;99.90;;;;;;5088285;28;20200;-80
2022/01/29 03:11:11;;;;;;;34.33;14.80;;;8.90;99.90;;;;;;5088933;28;20685;-81
2022/01/29 03:13:38;;;;;;;36.43;15.70;;;8.90;99.90;;;;;;5088485;28;20211;-82
2022/01/29 03:16:05;;;;;;;31.93;14.53;;;8.90;99.90;;;;;;5088315;28;20521;-82
2022/01/29 03:18:31;;;;;;;38.47;14.50;;;8.90;99.90;;;;;;5097948;28;20633;-81
2022/01/29 03:20:58;;;;;;;40.13;15.07;;;9.00;99.90;;;;;;5109341;28;20211;-83
2022/01/29 03:23:25;;;;;;;37.60;14.80;;;9.00;99.90;;;;;;5108720;28;20207;-82
2022/01/29 03:25:52;;;;;;;31.63;14.00;;;9.00;99.90;;;;;;5108506;28;20202;-81
2022/01/29 03:28:20;;;;;;;33.43;13.50;;;9.00;99.90;;;;;;5090901;28;20204;-81
2022/01/29 03:30:46;;;;;;;33.47;12.60;;;9.00;99.90;;;;;;5088153;28;20260;-88
2022/01/29 03:33:13;;;;;;;28.53;13.23;;;9.00;99.90;;;;;;5087911;28;20204;-81
2022/01/29 03:35:40;;;;;;;32.57;14.13;;;9.10;99.90;;;;;;5086793;28;20240;-82
2022/01/29 03:38:07;;;;;;;33.00;14.03;;;9.10;99.90;;;;;;5088211;28;20251;-81
2022/01/29 03:40:35;;;;;;;32.63;14.37;;;9.10;99.90;;;;;;5087466;28;20224;-81
2022/01/29 03:43:05;;;;;;;34.93;13.13;;;9.10;99.90;;;;;;5087946;28;20311;-82
2022/01/29 03:45:33;;;;;;;34.17;11.80;;;9.00;99.90;;;;;;5090704;28;20292;-80
2022/01/29 03:48:00;;;;;;;29.60;11.70;;;9.00;99.90;;;;;;5108276;27;20226;-82
2022/01/29 03:50:27;;;;;;;36.53;13.30;;;9.00;99.90;;;;;;5107895;28;20587;-81
2022/01/29 03:52:53;;;;;;;34.23;14.43;;;9.00;99.90;;;;;;5106503;28;20214;-82
2022/01/29 03:55:20;;;;;;;29.30;12.40;;;8.90;99.90;;;;;;5108317;28;20188;-81
2022/01/29 03:57:47;;;;;;;37.93;13.30;;;8.90;99.90;;;;;;5095054;28;20226;-82
2022/01/29 04:00:15;;;;;;;38.50;14.27;;;8.90;99.90;;;;;;5086645;28;20216;-81
2022/01/29 04:02:43;;;;;;;31.90;12.67;;;8.90;99.90;;;;;;5087257;28;20207;-80
2022/01/29 04:05:11;;;;;;;35.57;14.60;;;8.90;99.90;;;;;;5086243;28;20596;-80
2022/01/29 04:07:38;;;;;;;37.27;14.80;;;9.00;99.90;;;;;;5086520;28;20205;-78
2022/01/29 04:10:06;;;;;;;31.00;13.27;;;9.00;99.90;;;;;;5086835;28;20196;-81
2022/01/29 04:12:39;;;;;;;28.80;12.27;;;9.10;99.90;;;;;;5086488;28;20615;-81
2022/01/29 04:15:07;;;;;;;37.27;14.13;;;9.10;99.90;;;;;;5086669;28;20219;-81
2022/01/29 04:17:34;;;;;;;35.33;12.00;;;9.10;99.90;;;;;;5085366;28;20224;-80
2022/01/29 04:20:03;;;;;;;26.10;10.87;;;9.10;99.90;;;;;;5086425;28;20223;-81
2022/01/29 04:22:30;;;;;;;24.67;10.67;;;9.10;99.90;;;;;;5086473;28;20192;-80
2022/01/29 04:24:57;;;;;;;22.60;9.53;;;9.20;99.90;;;;;;5085461;28;20204;-80
2022/01/29 04:27:33;;;;;;;29.93;12.10;;;9.10;99.90;;;;;;5086498;28;20197;-81
2022/01/29 04:30:06;;;;;;;28.63;13.20;;;9.10;99.90;;;;;;5086661;28;20208;-80
2022/01/29 04:32:55;;;;;;;27.87;11.87;;;9.20;99.90;;;;;;5085442;28;20598;-80
2022/01/29 04:35:22;;;;;;;23.53;10.77;;;9.20;99.90;;;;;;5086340;28;20285;-80
2022/01/29 04:37:50;;;;;;;22.30;9.67;;;9.20;99.90;;;;;;5085239;28;20232;-79
2022/01/29 04:40:18;;;;;;;29.10;12.13;;;9.20;99.90;;;;;;5085859;28;20216;-81
2022/01/29 04:42:45;;;;;;;24.33;10.47;;;9.20;99.90;;;;;;5086831;28;20201;-79
2022/01/29 04:45:12;;;;;;;37.17;12.67;;;9.20;99.90;;;;;;5086288;28;20204;-81
2022/01/29 04:47:38;;;;;;;21.60;10.23;;;9.30;99.90;;;;;;5106876;28;20674;-82
2022/01/29 04:50:06;;;;;;;27.03;11.37;;;9.30;99.90;;;;;;5106586;28;20195;-80
2022/01/29 04:52:34;;;;;;;28.17;11.73;;;9.30;99.90;;;;;;5107252;28;20503;-80
2022/01/29 04:55:01;;;;;;;27.00;11.80;;;9.30;99.90;;;;;;5096586;28;20213;-80
2022/01/29 04:57:28;;;;;;;34.50;12.50;;;9.30;99.90;;;;;;5088893;28;20211;-81
2022/01/29 04:59:55;;;;;;;30.70;10.60;;;9.30;99.90;;;;;;5089989;28;20277;-81
2022/01/29 05:02:21;;;;;;;36.70;10.77;;;9.30;99.90;;;;;;5108782;28;20222;-81
2022/01/29 05:04:48;;;;;;;29.80;11.53;;;9.20;99.90;;;;;;5111526;28;20868;-80
2022/01/29 05:07:15;;;;;;;37.77;10.83;;;9.20;99.90;;;;;;5111580;28;20203;-80
2022/01/29 05:09:43;;;;;;;28.00;10.40;;;9.20;99.90;;;;;;5110791;28;20192;-80
2022/01/29 05:12:13;;;;;;;24.30;7.57;;;9.10;99.90;;;;;;5093128;28;20204;-81
2022/01/29 05:14:48;;;;;;;25.50;8.50;;;9.10;99.90;;;;;;5090887;28;20604;-80
2022/01/29 05:28:12;;;;;;;33.47;9.80;;;8.90;99.90;;;;;;5090597;28;20700;-80
2022/01/29 05:30:39;;;;;;;25.20;8.80;;;8.80;99.90;;;;;;5090343;28;20207;-81
2022/01/29 05:33:06;;;;;;;26.43;8.23;;;8.80;99.90;;;;;;5090454;28;20207;-82
2022/01/29 05:35:32;;;;;;;31.90;8.47;;;8.80;99.90;;;;;;5089761;28;20244;-81
2022/01/29 05:38:00;;;;;;;26.57;9.13;;;8.80;99.90;;;;;;5089761;28;20892;-80
2022/01/29 05:40:28;;;;;;;28.90;9.07;;;8.80;99.90;;;;;;5089972;28;20236;-82
2022/01/29 05:42:55;;;;;;;31.13;8.57;;;8.80;99.90;;;;;;5088872;28;20201;-81
2022/01/29 05:45:22;;;;;;;28.90;10.23;;;8.90;99.90;;;;;;5092150;28;20606;-79
2022/01/29 05:47:49;;;;;;;32.53;10.03;;;8.90;99.90;;;;;;5109557;28;20207;-81
2022/01/29 05:50:15;;;;;;;26.57;10.67;;;8.90;99.90;;;;;;5108368;27;20927;-81
2022/01/29 05:52:42;;;;;;;30.43;10.87;;;9.00;99.90;;;;;;5099872;28;20201;-79
2022/01/29 05:55:09;;;;;;;30.07;11.83;;;9.00;99.90;;;;;;5089520;28;20201;-77
2022/01/29 05:57:37;;;;;;;26.63;10.67;;;9.00;99.90;;;;;;5088976;28;20193;-80
2022/01/29 06:00:07;;;;;;;33.13;11.50;;;9.10;99.90;;;;;;5089915;28;20219;-81
2022/01/29 06:02:34;;;;;;;41.03;12.47;;;9.10;99.90;;;;;;5088799;28;20211;-80
2022/01/29 06:05:01;;;;;;;29.67;11.13;;;9.10;99.90;;;;;;5088163;28;20634;-81
2022/01/29 06:07:27;;;;;;;34.50;9.47;;;9.10;99.90;;;;;;5088916;28;20215;-80
2022/01/29 06:09:54;;;;;;;34.03;10.43;;;9.20;99.90;;;;;;5089288;28;20199;-80
2022/01/29 06:12:21;;;;;;;20.77;7.10;;;9.20;99.90;;;;;;5087748;28;20197;-79
2022/01/29 06:14:49;;;;;;;28.67;8.73;;;9.20;99.90;;;;;;5088632;28;20214;-81
2022/01/29 06:17:16;;;;;;;39.03;11.03;;;9.20;99.90;;;;;;5087590;28;20203;-81
2022/01/29 06:19:43;;;;;;;31.50;9.10;;;9.10;99.90;;;;;;5088756;28;20224;-81
2022/01/29 06:22:13;;;;;;;31.97;9.60;;;9.10;99.90;;;;;;5088378;28;20212;-81
2022/01/29 06:24:41;;;;;;;38.37;10.73;;;9.10;99.90;;;;;;5088367;28;20294;-80
2022/01/29 06:27:08;;;;;;;36.20;13.17;;;9.10;99.90;;;;;;5089277;28;20772;-79
2022/01/29 06:29:35;;;;;;;29.23;12.20;;;9.10;99.90;;;;;;5089366;28;20536;-81
2022/01/29 06:32:03;;;;;;;32.90;11.77;;;9.10;99.90;;;;;;5088932;28;20232;-80
2022/01/29 06:34:30;;;;;;;28.03;10.33;;;9.20;99.90;;;;;;5089213;28;20200;-80
2022/01/29 06:36:57;;;;;;;19.60;9.27;;;9.20;99.90;;;;;;5088907;28;20224;-80
2022/01/29 06:39:23;;;;;;;21.40;8.47;;;9.10;99.90;;;;;;5088574;28;20228;-80
2022/01/29 06:41:50;;;;;;;26.87;9.23;;;9.10;99.90;;;;;;5088478;28;20207;-79
2022/01/29 06:44:17;;;;;;;27.03;10.67;;;9.20;99.90;;;;;;5088164;28;20698;-81
2022/01/29 06:46:44;;;;;;;33.33;11.77;;;9.20;99.90;;;;;;5092250;28;20231;-80
2022/01/29 06:49:12;;;;;;;27.37;11.43;;;9.20;99.90;;;;;;5088682;28;20200;-81
2022/01/29 06:51:39;;;;;;;25.77;10.77;;;9.20;99.90;;;;;;5089145;28;20212;-82
2022/01/29 06:54:05;;;;;;;28.97;12.03;;;9.20;99.90;;;;;;5088470;28;20209;-79
2022/01/29 06:56:32;;;;;;;34.50;12.27;;;9.20;99.90;;;;;;5088974;28;20200;-80
2022/01/29 06:58:59;;;;;;;32.87;12.20;;;9.20;99.90;;;;;;5088582;28;20221;-80
2022/01/29 07:01:26;;;;;;;26.57;8.60;;;9.30;99.90;;;;;;5088152;28;20691;-81
2022/01/29 07:03:52;;;;;;;33.50;12.07;;;9.30;99.90;;;;;;5087724;28;20207;-82
2022/01/29 07:06:20;;;;;;;32.00;10.93;;;9.30;99.90;;;;;;5088470;28;20196;-79
2022/01/29 07:08:47;;;;;;;34.73;9.43;;;9.30;99.90;;;;;;5087340;28;20513;-80
2022/01/29 07:11:14;;;;;;;29.57;10.53;;;9.40;99.90;;;;;;5088034;28;20967;-81
2022/01/29 07:13:41;;;;;;;25.93;10.10;;;9.40;99.90;;;;;;5087498;28;20211;-78
2022/01/29 07:16:07;;;;;;;34.23;10.47;;;9.40;99.90;;;;;;5088042;28;20253;-81
2022/01/29 07:18:34;;;;;;;25.40;8.30;;;9.40;99.90;;;;;;5087701;28;20232;-80
2022/01/29 07:21:01;;;;;;;29.13;6.67;;;9.40;99.90;;;;;;5085274;28;20219;-81
2022/01/29 07:23:29;;;;;;;15.73;5.73;;;9.40;99.90;;;;;;5086503;28;20216;-80
2022/01/29 07:25:56;;;;;;;23.17;5.27;;;9.40;99.90;;;;;;5087132;28;20201;-80
2022/01/29 07:28:23;;;;;;;20.63;5.77;;;9.40;99.90;;;;;;5086979;28;20623;-80
2022/01/29 07:30:52;;;;;;;19.40;5.37;;;9.40;99.90;;;;;;5092204;28;20221;-80
2022/01/29 07:33:18;;;;;;;14.70;5.30;;;9.40;99.90;;;;;;5108410;28;20344;-80
2022/01/29 07:35:45;;;;;;;22.63;5.73;;;9.40;99.90;;;;;;5101873;28;20406;-81
2022/01/29 07:38:13;;;;;;;20.30;4.80;;;9.40;99.90;;;;;;5087198;28;20204;-79
2022/01/29 07:40:41;;;;;;;21.90;4.73;;;9.50;99.90;;;;;;5087197;28;20224;-81
2022/01/29 07:43:08;;;;;;;16.73;4.40;;;9.50;99.90;;;;;;5086734;28;20212;-80
2022/01/29 07:45:34;;;;;;;19.50;5.87;;;9.50;99.90;;;;;;5090389;28;20908;-80
2022/01/29 07:48:01;;;;;;;16.10;4.73;;;9.50;99.90;;;;;;5093641;28;20219;-80
2022/01/29 07:50:28;;;;;;;27.33;5.10;;;9.50;99.90;;;;;;5086518;28;20208;-81
2022/01/29 07:52:57;;;;;;;18.37;5.33;;;9.50;99.90;;;;;;5086821;28;21009;-81
2022/01/29 07:55:24;;;;;;;27.00;6.93;;;9.50;99.90;;;;;;5088071;28;20211;-80
2022/01/29 07:57:54;;;;;;;23.33;4.87;;;9.50;99.90;;;;;;5087316;28;20651;-80
2022/01/29 08:00:20;;;;;;;22.53;4.43;;;9.50;99.90;;;;;;5086792;28;20933;-79
2022/01/29 08:02:47;;;;;;;17.67;4.97;;;9.50;99.90;;;;;;5085626;28;20878;-80
2022/01/29 08:05:14;;;;;;;21.30;4.60;;;9.60;99.90;;;;;;5086626;28;20223;-81
2022/01/29 08:07:41;;;;;;;21.40;5.73;;;9.60;99.90;;;;;;5086357;28;20226;-79
2022/01/29 08:10:09;;;;;;;21.80;5.33;;;9.50;99.90;;;;;;5086523;28;20201;-80
2022/01/29 08:12:36;;;;;;;22.57;4.97;;;9.60;99.90;;;;;;5086570;28;20189;-81
2022/01/29 08:15:06;;;;;;;31.00;6.30;;;9.50;99.90;;;;;;5086393;28;20208;-81
2022/01/29 08:17:33;;;;;;;29.03;5.73;;;9.60;99.90;;;;;;5086491;28;20207;-79
2022/01/29 08:20:00;;;;;;;24.27;6.33;;;9.50;99.90;;;;;;5086518;28;20235;-81
2022/01/29 08:22:28;;;;;;;30.63;6.47;;;9.60;99.90;;;;;;5087158;28;20627;-82
2022/01/29 08:24:55;;;;;;;22.57;6.03;;;9.60;99.90;;;;;;5048947;28;20193;-81
2022/01/29 08:27:22;;;;;;;21.57;4.67;;;9.60;99.90;;;;;;5086549;28;21020;-81
2022/01/29 08:29:49;;;;;;;17.63;5.83;;;9.60;99.90;;;;;;5095145;28;20210;-80
2022/01/29 08:32:17;;;;;;;24.43;6.27;;;9.70;99.90;;;;;;5107101;28;20188;-82
2022/01/29 08:34:46;;;;;;;18.87;4.30;;;9.70;99.90;;;;;;5102697;28;20208;-80
2022/01/29 08:37:13;;;;;;;23.50;5.43;;;9.70;99.90;;;;;;5087528;28;20216;-81
2022/01/29 08:39:41;;;;;;;27.17;8.47;;;9.70;99.90;;;;;;5074722;28;20228;-80
2022/01/29 08:42:08;;;;;;;23.60;6.33;;;9.80;99.90;;;;;;5107477;28;20270;-81
2022/01/29 08:44:35;;;;;;;29.20;6.80;;;9.80;99.90;;;;;;5108094;28;20206;-79
2022/01/29 08:47:03;;;;;;;23.33;5.53;;;9.80;99.90;;;;;;5102203;28;20235;-79
2022/01/29 08:49:31;;;;;;;24.00;6.63;;;9.80;99.90;;;;;;5086561;28;20197;-80
2022/01/29 08:51:58;;;;;;;21.83;4.93;;;9.80;99.90;;;;;;5086149;28;20209;-79
2022/01/29 08:54:25;;;;;;;22.63;5.27;;;9.80;99.90;;;;;;5085088;28;20276;-80
2022/01/29 08:56:51;;;;;;;28.57;7.43;;;9.80;99.90;;;;;;5086219;28;20215;-79
2022/01/29 08:59:18;;;;;;;27.97;6.13;;;9.80;99.90;;;;;;5086140;28;20244;-81
2022/01/29 09:01:45;;;;;;;25.47;8.47;;;9.80;99.90;;;;;;5096939;28;20211;-79
2022/01/29 09:04:12;;;;;;;28.80;11.73;;;9.80;99.90;;;;;;5107021;28;20257;-79
2022/01/29 09:06:40;;;;;;;31.50;9.40;;;9.80;99.90;;;;;;5106047;28;20210;-79
2022/01/29 09:09:07;;;;;;;32.47;9.63;;;9.80;99.90;;;;;;5100701;28;20219;-80
2022/01/29 09:11:34;;;;;;;37.07;8.13;;;9.80;99.90;;;;;;5086052;28;20204;-81
2022/01/29 09:14:00;;;;;;;26.07;8.03;;;9.80;99.90;;;;;;5099404;28;20300;-81
2022/01/29 09:16:27;;;;;;;26.63;7.13;;;9.80;99.90;;;;;;5106351;28;20591;-79
2022/01/29 09:18:54;;;;;;;33.40;10.67;;;9.80;99.90;;;;;;5106247;28;20231;-81
2022/01/29 09:21:21;;;;;;;32.13;10.97;;;9.90;99.90;;;;;;5093858;28;20205;-78
2022/01/29 09:23:49;;;;;;;34.70;8.57;;;9.90;99.90;;;;;;5086303;28;20209;-80
2022/01/29 09:26:16;;;;;;;25.80;6.93;;;9.90;99.90;;;;;;5086682;28;20215;-83
2022/01/29 09:28:43;;;;;;;35.10;7.00;;;9.90;99.90;;;;;;5086151;28;20212;-80
2022/01/29 09:31:09;;;;;;;31.20;9.57;;;9.90;99.90;;;;;;5087526;28;20200;-81
2022/01/29 09:33:36;;;;;;;38.27;9.40;;;9.90;99.90;;;;;;5086675;28;20250;-81
2022/01/29 09:36:03;;;;;;;28.50;8.27;;;9.90;99.90;;;;;;5085223;28;20235;-81
2022/01/29 09:38:30;;;;;;;27.40;10.03;;;9.90;99.90;;;;;;5090113;28;20209;-84
2022/01/29 09:41:00;;;;;;;26.47;9.10;;;9.90;99.90;;;;;;5090133;28;20225;-82
2022/01/29 09:43:27;;;;;;;27.07;7.23;;;9.80;99.90;;;;;;5090704;28;20219;-81
2022/01/29 09:45:54;;;;;;;34.27;9.57;;;9.90;99.90;;;;;;5098679;28;20204;-80
2022/01/29 09:48:23;;;;;;;25.23;7.97;;;9.90;99.90;;;;;;5111592;28;20204;-82
2022/01/29 09:50:52;;;;;;;22.37;8.00;;;9.90;99.90;;;;;;5110006;28;20430;-80
2022/01/29 09:53:19;;;;;;;27.63;6.37;;;9.90;99.90;;;;;;5089619;28;20219;-79
2022/01/29 09:55:47;;;;;;;29.80;8.07;;;9.90;99.90;;;;;;5088199;28;20208;-80
2022/01/29 09:58:18;;;;;;;30.43;10.30;;;10.00;99.90;;;;;;5088871;28;20204;-80
2022/01/29 10:00:45;;;;;;;35.57;11.13;;;10.00;99.90;;;;;;5088105;28;20643;-79
2022/01/29 10:03:20;;;;;;;33.07;7.73;;;10.10;99.90;;;;;;5088332;28;20220;-81
2022/01/29 10:05:49;;;;;;;34.30;8.63;;;10.10;99.90;;;;;;5088842;28;20207;-79
2022/01/29 10:08:16;;;;;;;25.97;8.37;;;10.10;99.90;;;;;;5089020;28;20219;-80
2022/01/29 10:10:45;;;;;;;33.77;9.00;;;10.20;99.90;;;;;;5088458;28;20250;-80
2022/01/29 10:13:30;;;;;;;26.30;8.17;;;10.20;99.90;;;;;;5088694;28;20212;-79
2022/01/29 10:16:12;;;;;;;25.83;8.83;;;10.20;99.90;;;;;;5087937;28;20474;-79
2022/01/29 10:18:40;;;;;;;23.93;8.13;;;10.30;99.90;;;;;;5087995;28;20600;-79
2022/01/29 10:21:13;;;;;;;28.17;9.73;;;10.30;99.90;;;;;;5088655;28;20216;-79
2022/01/29 10:23:40;;;;;;;23.50;5.77;;;10.40;99.90;;;;;;5088571;28;20207;-79
2022/01/29 10:26:09;;;;;;;17.10;4.47;;;10.50;99.90;;;;;;5088180;28;20216;-78
2022/01/29 10:28:39;;;;;;;27.60;6.90;;;10.50;99.90;;;;;;5088579;28;20216;-81
2022/01/29 10:31:07;;;;;;;20.80;5.73;;;10.50;99.90;;;;;;5088442;28;20205;-83
2022/01/29 10:33:35;;;;;;;20.20;5.90;;;10.50;99.90;;;;;;5088586;28;20200;-81
2022/01/29 10:36:05;;;;;;;23.10;5.40;;;10.50;99.90;;;;;;5087588;28;20245;-81
2022/01/29 10:38:48;;;;;;;25.53;7.80;;;10.50;99.90;;;;;;5088307;28;20201;-81
2022/01/29 10:41:20;;;;;;;27.60;6.50;;;10.50;99.90;;;;;;5089180;28;21041;-81
2022/01/29 10:44:10;;;;;;;22.20;5.67;;;10.50;99.90;;;;;;5088794;28;20200;-83
2022/01/29 10:46:39;;;;;;;24.73;7.50;;;10.50;99.90;;;;;;5100062;28;20204;-80
2022/01/29 10:49:07;;;;;;;26.30;6.93;;;10.50;99.90;;;;;;5092971;28;20201;-81
2022/01/29 10:51:34;;;;;;;25.13;6.07;;;10.60;99.90;;;;;;5087980;28;20208;-82
2022/01/29 10:54:16;;;;;;;18.53;5.20;;;10.60;99.90;;;;;;5086662;28;20193;-81
2022/01/29 10:56:51;;;;;;;20.50;4.43;;;10.60;99.90;;;;;;5087202;28;20284;-81
2022/01/29 10:59:20;;;;;;;20.33;5.30;;;10.70;99.90;;;;;;5088923;28;20261;-81
2022/01/29 11:01:57;;;;;;;20.17;5.97;;;10.70;99.90;;;;;;5087072;28;20329;-79
2022/01/29 11:04:26;;;;;;;27.50;6.43;;;10.80;99.90;;;;;;5087878;28;20208;-81
2022/01/29 11:06:54;;;;;;;27.17;6.17;;;10.80;99.90;;;;;;5086363;28;20269;-80
2022/01/29 11:09:22;;;;;;;18.87;6.37;;;10.80;99.90;;;;;;5087219;28;20262;-78
2022/01/29 11:11:49;;;;;;;25.27;6.87;;;10.80;99.90;;;;;;5087056;28;20236;-79
2022/01/29 11:14:18;;;;;;;26.93;6.30;;;10.90;99.90;;;;;;5086991;28;20200;-81
2022/01/29 11:16:47;;;;;;;23.27;6.63;;;10.90;99.90;;;;;;5086526;28;20192;-78
2022/01/29 11:19:16;;;;;;;23.23;7.63;;;11.00;99.90;;;;;;5086593;28;20200;-80
2022/01/29 11:21:43;;;;;;;25.90;8.17;;;11.00;99.90;;;;;;5085624;28;20243;-77
2022/01/29 11:24:12;;;;;;;34.33;7.57;;;11.10;99.90;;;;;;5085980;28;20195;-79
2022/01/29 11:26:41;;;;;;;25.30;7.57;;;11.20;99.90;;;;;;5085701;28;20237;-78
2022/01/29 11:29:28;;;;;;;29.97;7.77;;;11.20;99.90;;;;;;5086956;28;20239;-80
2022/01/29 11:32:32;;;;;;;28.63;6.87;;;11.30;99.90;;;;;;5086373;28;20499;-79
2022/01/29 11:35:08;;;;;;;24.27;6.20;;;11.30;99.90;;;;;;5084794;28;20762;-79
2022/01/29 11:37:47;;;;;;;26.77;7.33;;;11.30;99.90;;;;;;5086519;28;20199;-80
2022/01/29 11:40:22;;;;;;;29.53;7.07;;;11.40;99.90;;;;;;5085816;28;20224;-78
2022/01/29 11:43:03;;;;;;;30.43;8.03;;;11.40;99.90;;;;;;5084981;28;20588;-79
2022/01/29 11:45:40;;;;;;;22.50;7.53;;;11.40;99.90;;;;;;5088507;28;20267;-79
2022/01/29 11:48:25;;;;;;;23.70;6.40;;;11.50;99.90;;;;;;5105453;28;20204;-79
2022/01/29 11:50:52;;;;;;;21.43;5.50;;;11.50;99.90;;;;;;5104152;28;20223;-80
2022/01/29 11:53:21;;;;;;;22.07;5.20;;;11.40;99.90;;;;;;5105785;28;20192;-77
2022/01/29 11:55:51;;;;;;;24.47;5.87;;;11.50;99.90;;;;;;5103701;28;20200;-79
2022/01/29 11:58:20;;;;;;;24.33;6.87;;;11.50;99.90;;;;;;5105918;28;20242;-80
2022/01/29 12:00:49;;;;;;;25.87;4.87;;;11.50;99.90;;;;;;5093896;28;20318;-80
2022/01/29 12:03:53;;;;;;;18.23;5.17;;;11.50;99.90;;;;;;5085773;28;20236;-80
2022/01/29 12:06:23;;;;;;;27.07;6.73;;;11.50;99.90;;;;;;5085823;28;20208;-79
2022/01/29 12:09:21;;;;;;;24.57;7.03;;;11.50;99.90;;;;;;5085296;28;20200;-79
2022/01/29 12:12:19;;;;;;;26.37;6.63;;;11.40;99.90;;;;;;5086292;28;20201;-79
2022/01/29 12:14:48;;;;;;;20.87;6.93;;;11.40;99.90;;;;;;5085914;28;20204;-81
2022/01/29 12:17:33;;;;;;;37.57;7.30;;;11.40;99.90;;;;;;5097608;28;20214;-80
2022/01/29 12:20:03;;;;;;;30.87;9.13;;;11.50;99.90;;;;;;5105779;28;20352;-79
2022/01/29 12:22:34;;;;;;;25.83;8.33;;;11.50;99.90;;;;;;5098623;28;20208;-79
2022/01/29 12:25:02;;;;;;;21.90;7.10;;;11.60;99.90;;;;;;5084953;28;20266;-78
2022/01/29 12:27:41;;;;;;;27.23;8.27;;;11.60;99.90;;;;;;5096603;28;20686;-81
2022/01/29 12:30:09;;;;;;;29.17;8.60;;;11.60;99.90;;;;;;5106299;28;20663;-79
2022/01/29 12:32:36;;;;;;;23.60;8.50;;;11.60;99.90;;;;;;5099521;28;20197;-80
2022/01/29 12:35:05;;;;;;;26.43;9.10;;;11.70;99.90;;;;;;5085218;28;20224;-80
2022/01/29 12:37:32;;;;;;;22.80;8.60;;;11.70;99.90;;;;;;5085222;28;20284;-77
2022/01/29 12:40:17;;;;;;;22.10;8.87;;;11.70;99.90;;;;;;5084462;28;20239;-81
2022/01/29 12:42:46;;;;;;;18.00;5.00;;;11.70;99.90;;;;;;5084979;28;20215;-79
2022/01/29 12:45:20;;;;;;;18.93;5.57;;;11.70;99.90;;;;;;5084588;28;20212;-78
2022/01/29 12:47:47;;;;;;;22.30;5.23;;;11.70;99.90;;;;;;5105425;28;20191;-78
2022/01/29 12:50:21;;;;;;;20.23;5.60;;;11.70;99.90;;;;;;5105170;28;20604;-80
2022/01/29 12:52:48;;;;;;;23.43;6.10;;;11.70;99.90;;;;;;5098003;28;20315;-78
2022/01/29 12:55:15;;;;;;;25.90;6.37;;;11.70;99.90;;;;;;5084893;28;20599;-79
2022/01/29 12:57:44;;;;;;;21.07;6.23;;;11.70;99.90;;;;;;5085106;28;20212;-79
2022/01/29 13:00:14;;;;;;;22.10;7.50;;;11.80;99.90;;;;;;5086021;28;20220;-80